Aeroporto :
LOGIN :

Iscrizione | Disclaimer

   EN    FR    IT 

 










Sommario :    VFR   VFR Marginale   IFR   IFR Intensivo   IFR Molto Intensivo
Visibilità : 
Base nubi : 
>= 8 km
>= 3000ft
5 / 8 km
1000 / 3000 ft
1500m / 5 km
500 / 1000 ft
800 / 1500m
200 / 500 ft
< 800m
< 200 ft
Simboli :   Temporali  Nebbia  Neve Forte  Precipitazioni Forti  Vento > 20 kt
SIGMETs :   Varie  Temporali  Ghiacco  Turbolenza  Onda orograficha  Ceneri Vulcaniche






- Altitudine del aeroporto : 499 ft
- Codice IATA : TLS


LFBO - Toulouse / Blagnac

ULTIMO METAR :
  • 062100Z AUTO 20002KT 0300 0200 R14R/0250N R32L/0400N R14L/0350N R32R/0450N FG VV/// 05/05 Q1022 NOSIG

METARs OBSOLETI :
  • 062030Z AUTO VRB02KT 0300 0250 R14R/0275N R32L/0325N R14L/0400N R32R/0325N FG VV/// 05/05 Q1022 NOSIG
  • 062000Z AUTO VRB01KT 0400 0300 R14R/0400N R32L/0325N R14L/0550N R32R/0375N FG VV/// 05/05 Q1022 TEMPO 0200
  • 061930Z AUTO 00000KT 0500 0400 R14R/0450N R32L/0600N R14L/0550U R32R/0600D FG VV/// 05/05 Q1022 TEMPO 0200
  • 061900Z AUTO VRB02KT 0450 0350 R14R/0550U R32L/0550N R14L/0550U R32R/0400N FG VV/// 05/05 Q1022 TEMPO 0200
  • 061830Z AUTO VRB02KT 0400 0300 R14R/0275N R32L/0400D R14L/0450N R32R/0400N FG VV/// 05/05 Q1022 TEMPO 0200

TAF TAF LFBO
Valido dal 06 a 18 ore il 08 a 00 ore UTC


061700Z 0618/0724 VRB02KT 0400 FG VV///
PROB40 0618/0705 0200
BECMG 0706/0708 3000 BR OVC003
BECMG 0708/0710 8000 NSW BKN016
PROB40 0711/0716 OVC012
BECMG 0717/0719 4000 BR
BECMG 0719/0722 0800 FG
ATIS : +33 5 62 74 66 36



MetMap, La meteo Aeronautica in un colpo d'occhio ! - Copyright ORBIFLY Dicembre 2007 - Disclaimer

ORBIFLY MET'MAP TEAM :

Programmazione e sviluppo : Alexandra Zaïnal
Concezione : Baudouin d'Aumeries
Aiuto per la programmazione : Marc-Olivier Méhu
Supporto tecnico e logistico : Manuel Goepfert
Aiuto per la traduzione : Arnaldo La Scala

Contatto : metmap@orbifly.com




FONTI E CREDITI :

   NOAA